createdAt,value
2018-12-08T00:01:46.844Z,9.30
2018-12-08T00:04:12.999Z,6.77
2018-12-08T00:06:39.204Z,7.27
2018-12-08T00:09:05.483Z,4.47
2018-12-08T00:11:31.731Z,7.03
2018-12-08T00:13:57.919Z,7.87
2018-12-08T00:16:24.149Z,4.60
2018-12-08T00:18:50.500Z,6.87
2018-12-08T00:21:16.655Z,3.57
2018-12-08T00:23:43.012Z,7.50
2018-12-08T00:26:11.122Z,3.60
2018-12-08T00:28:37.349Z,6.43
2018-12-08T00:31:15.927Z,5.60
2018-12-08T00:33:42.108Z,4.93
2018-12-08T00:36:08.279Z,5.10
2018-12-08T00:38:34.435Z,7.00
2018-12-08T00:41:00.580Z,8.37
2018-12-08T00:43:26.820Z,5.53
2018-12-08T00:45:52.976Z,6.40
2018-12-08T00:48:19.131Z,5.67
2018-12-08T00:50:45.302Z,9.30
2018-12-08T00:53:11.707Z,8.47
2018-12-08T00:55:37.882Z,5.70
2018-12-08T00:58:04.045Z,4.73
2018-12-08T01:00:30.208Z,6.17
2018-12-08T01:02:56.356Z,8.17
2018-12-08T01:05:22.559Z,5.87
2018-12-08T01:07:48.716Z,4.47
2018-12-08T01:10:14.992Z,6.93
2018-12-08T01:12:41.184Z,7.40
2018-12-08T01:15:07.595Z,4.27
2018-12-08T01:17:33.795Z,5.70
2018-12-08T01:19:59.959Z,5.83
2018-12-08T01:22:26.094Z,5.67
2018-12-08T01:24:52.311Z,3.70
2018-12-08T01:27:18.463Z,3.20
2018-12-08T01:29:44.634Z,3.23
2018-12-08T01:32:10.783Z,2.33
2018-12-08T01:34:36.954Z,1.67
2018-12-08T01:37:03.120Z,2.87
2018-12-08T01:39:29.288Z,2.67
2018-12-08T01:41:55.573Z,3.43
2018-12-08T01:44:21.763Z,3.70
2018-12-08T01:46:47.914Z,4.27
2018-12-08T01:49:14.187Z,1.87
2018-12-08T01:51:40.335Z,3.70
2018-12-08T01:54:06.589Z,4.23
2018-12-08T01:56:32.736Z,4.73
2018-12-08T01:58:58.979Z,4.33
2018-12-08T02:01:25.190Z,4.43
2018-12-08T02:03:52.873Z,6.33
2018-12-08T02:06:19.427Z,4.70
2018-12-08T02:08:45.741Z,6.10
2018-12-08T02:11:11.955Z,4.03
2018-12-08T02:13:38.126Z,2.60
2018-12-08T02:16:04.343Z,2.63
2018-12-08T02:18:30.491Z,2.87
2018-12-08T02:20:56.696Z,2.93
2018-12-08T02:23:22.870Z,4.00
2018-12-08T02:25:49.063Z,2.80
2018-12-08T02:28:15.220Z,2.80
2018-12-08T02:30:41.489Z,4.40
2018-12-08T02:33:07.639Z,2.77
2018-12-08T02:35:33.836Z,1.80
2018-12-08T02:38:06.942Z,3.07
2018-12-08T02:40:33.211Z,1.60
2018-12-08T02:42:59.376Z,1.40
2018-12-08T02:45:25.542Z,3.77
2018-12-08T02:47:51.739Z,1.93
2018-12-08T02:50:17.906Z,4.90
2018-12-08T02:52:44.088Z,3.07
2018-12-08T02:55:10.328Z,3.40
2018-12-08T02:57:36.501Z,3.80
2018-12-08T03:00:03.829Z,2.20
2018-12-08T03:02:30.615Z,4.53
2018-12-08T03:04:56.863Z,2.63
2018-12-08T03:07:23.059Z,4.33
2018-12-08T03:09:49.219Z,5.73
2018-12-08T03:12:15.407Z,3.17
2018-12-08T03:14:41.574Z,2.57
2018-12-08T03:17:07.736Z,4.03
2018-12-08T03:19:33.899Z,3.07
2018-12-08T03:22:00.166Z,5.90
2018-12-08T03:24:26.319Z,3.80
2018-12-08T03:26:52.470Z,4.33
2018-12-08T03:29:18.642Z,3.30
2018-12-08T03:31:44.828Z,4.93
2018-12-08T03:34:11.090Z,4.23
2018-12-08T03:36:37.247Z,3.90
2018-12-08T03:39:05.919Z,4.70
2018-12-08T03:41:32.102Z,5.97
2018-12-08T03:43:58.258Z,4.03
2018-12-08T03:46:24.434Z,2.37
2018-12-08T03:48:50.616Z,2.53
2018-12-08T03:51:16.766Z,4.13
2018-12-08T03:53:50.002Z,2.87
2018-12-08T03:56:16.384Z,3.43
2018-12-08T03:58:42.514Z,3.03
2018-12-08T04:01:08.675Z,3.20
2018-12-08T04:03:34.826Z,5.57
2018-12-08T04:06:01.100Z,2.57
2018-12-08T04:08:27.310Z,5.23
2018-12-08T04:10:53.619Z,5.37
2018-12-08T04:13:19.824Z,4.03
2018-12-08T04:15:46.112Z,4.30
2018-12-08T04:18:12.255Z,3.80
2018-12-08T04:20:38.410Z,4.57
2018-12-08T04:23:04.604Z,4.03
2018-12-08T04:25:30.782Z,5.50
2018-12-08T04:27:57.125Z,3.77
2018-12-08T04:30:23.441Z,4.30
2018-12-08T04:32:49.719Z,5.67
2018-12-08T04:35:15.888Z,3.70
2018-12-08T04:37:42.027Z,5.73
2018-12-08T04:40:08.423Z,5.67
2018-12-08T04:42:34.546Z,4.23
2018-12-08T04:45:00.706Z,3.40
2018-12-08T04:47:26.880Z,3.67
2018-12-08T04:49:53.028Z,2.67
2018-12-08T04:52:19.159Z,5.27
2018-12-08T04:54:45.383Z,3.73
2018-12-08T04:57:11.556Z,3.27
2018-12-08T04:59:37.818Z,2.13
2018-12-08T05:02:04.182Z,3.40
2018-12-08T05:04:30.493Z,7.47
2018-12-08T05:06:56.767Z,3.67
2018-12-08T05:09:22.977Z,2.70
2018-12-08T05:11:49.219Z,4.90
2018-12-08T05:14:15.431Z,4.23
2018-12-08T05:16:41.625Z,3.87
2018-12-08T05:19:07.769Z,3.07
2018-12-08T05:21:33.933Z,5.23
2018-12-08T05:24:00.100Z,1.93
2018-12-08T05:26:26.400Z,5.97
2018-12-08T05:28:52.577Z,3.67
2018-12-08T05:31:18.762Z,4.23
2018-12-08T05:33:44.915Z,4.10
2018-12-08T05:36:12.101Z,2.07
2018-12-08T05:38:38.251Z,1.87
2018-12-08T05:41:04.438Z,1.93
2018-12-08T05:43:30.615Z,3.93
2018-12-08T05:45:56.778Z,1.93
2018-12-08T05:48:23.019Z,6.23
2018-12-08T05:50:49.178Z,3.03
2018-12-08T05:53:15.375Z,3.27
2018-12-08T05:55:41.527Z,3.30
2018-12-08T05:58:07.687Z,2.43
2018-12-08T06:00:34.102Z,4.30
2018-12-08T06:03:00.237Z,2.77
2018-12-08T06:05:26.467Z,2.23
2018-12-08T06:07:52.597Z,3.80
2018-12-08T06:10:18.759Z,5.30
2018-12-08T06:12:44.994Z,5.40
2018-12-08T06:15:11.158Z,4.40
2018-12-08T06:17:37.314Z,3.37
2018-12-08T06:20:05.314Z,2.37
2018-12-08T06:22:31.588Z,4.50
2018-12-08T06:24:57.763Z,2.40
2018-12-08T06:27:24.168Z,4.07
2018-12-08T06:29:50.319Z,2.87
2018-12-08T06:32:16.502Z,6.90
2018-12-08T06:34:42.648Z,3.57
2018-12-08T06:37:08.833Z,3.43
2018-12-08T06:39:35.047Z,3.73
2018-12-08T06:42:01.320Z,4.97
2018-12-08T06:44:27.470Z,3.37
2018-12-08T06:46:53.642Z,5.53
2018-12-08T06:49:19.775Z,4.50
2018-12-08T06:51:45.943Z,3.87
2018-12-08T06:54:12.075Z,2.97
2018-12-08T06:56:38.247Z,7.07
2018-12-08T06:59:04.467Z,4.27
2018-12-08T07:01:30.763Z,3.97
2018-12-08T07:03:56.951Z,8.27
2018-12-08T07:06:23.247Z,5.93
2018-12-08T07:08:49.418Z,32.77
2018-12-08T07:11:15.635Z,15.40
2018-12-08T07:13:41.779Z,10.93
2018-12-08T07:16:07.939Z,6.03
2018-12-08T07:18:34.084Z,6.33
2018-12-08T07:21:00.251Z,5.43
2018-12-08T07:23:26.483Z,3.97
2018-12-08T07:25:52.656Z,6.00
2018-12-08T07:28:18.826Z,5.23
2018-12-08T07:30:44.963Z,4.83
2018-12-08T07:33:11.251Z,4.87
2018-12-08T07:35:37.382Z,3.33
2018-12-08T07:38:03.679Z,4.10
2018-12-08T07:40:29.938Z,6.67
2018-12-08T07:42:56.097Z,4.23
2018-12-08T07:45:22.285Z,7.17
2018-12-08T07:47:48.459Z,4.93
2018-12-08T07:50:14.608Z,3.83
2018-12-08T07:52:40.911Z,4.50
2018-12-08T07:55:07.215Z,6.90
2018-12-08T07:57:33.454Z,6.60
2018-12-08T07:59:59.732Z,5.23
2018-12-08T08:02:25.895Z,4.83
2018-12-08T08:04:52.035Z,4.23
2018-12-08T08:07:18.203Z,5.03
2018-12-08T08:09:44.358Z,3.23
2018-12-08T08:12:10.584Z,4.03
2018-12-08T08:14:36.835Z,5.07
2018-12-08T08:17:03.027Z,9.93
2018-12-08T08:19:29.178Z,6.00
2018-12-08T08:21:55.394Z,8.37
2018-12-08T08:24:21.626Z,6.30
2018-12-08T08:26:47.836Z,6.70
2018-12-08T08:29:13.998Z,4.57
2018-12-08T08:31:40.340Z,4.20
2018-12-08T08:34:06.550Z,4.27
2018-12-08T08:36:32.687Z,6.87
2018-12-08T08:38:58.911Z,6.87
2018-12-08T08:41:25.070Z,7.07
2018-12-08T08:43:51.234Z,5.07
2018-12-08T08:46:17.386Z,4.00
2018-12-08T08:48:43.683Z,3.83
2018-12-08T08:51:09.826Z,4.60
2018-12-08T08:53:36.019Z,6.73
2018-12-08T08:56:02.303Z,2.53
2018-12-08T08:58:28.515Z,4.90
2018-12-08T09:00:54.665Z,4.53
2018-12-08T09:03:20.846Z,4.37
2018-12-08T09:05:47.167Z,4.80
2018-12-08T09:08:13.335Z,4.63
2018-12-08T09:10:39.488Z,3.93
2018-12-08T09:13:05.663Z,6.70
2018-12-08T09:15:31.832Z,4.07
2018-12-08T09:17:57.992Z,4.57
2018-12-08T09:20:24.167Z,6.80
2018-12-08T09:22:50.318Z,4.77
2018-12-08T09:25:16.487Z,5.13
2018-12-08T09:27:42.643Z,4.60
2018-12-08T09:30:09.079Z,5.97
2018-12-08T09:32:35.366Z,5.27
2018-12-08T09:35:01.610Z,6.53
2018-12-08T09:37:27.875Z,4.60
2018-12-08T09:39:54.055Z,6.13
2018-12-08T09:42:20.235Z,6.00
2018-12-08T09:44:46.544Z,4.40
2018-12-08T09:47:12.716Z,4.00
2018-12-08T09:49:38.891Z,3.90
2018-12-08T09:52:05.040Z,4.43
2018-12-08T09:54:31.206Z,5.20
2018-12-08T09:56:57.373Z,3.77
2018-12-08T09:59:23.648Z,3.20
2018-12-08T10:01:49.800Z,4.10
2018-12-08T10:04:15.956Z,7.10
2018-12-08T10:06:42.092Z,7.03
2018-12-08T10:09:08.248Z,15.57
2018-12-08T10:11:34.399Z,8.70
2018-12-08T10:14:00.565Z,12.03
2018-12-08T10:16:26.703Z,16.03
2018-12-08T10:18:52.864Z,24.70
2018-12-08T10:21:19.043Z,14.93
2018-12-08T10:23:45.239Z,14.03
2018-12-08T10:26:11.395Z,28.40
2018-12-08T10:28:37.562Z,10.40
2018-12-08T10:31:03.804Z,10.30
2018-12-08T10:33:30.176Z,17.20
2018-12-08T10:35:56.317Z,22.70
2018-12-08T10:38:22.586Z,15.93
2018-12-08T10:40:48.843Z,15.17
2018-12-08T10:43:14.986Z,12.63
2018-12-08T10:45:41.235Z,6.50
2018-12-08T10:48:07.403Z,9.70
2018-12-08T10:50:33.564Z,6.60
2018-12-08T10:52:59.795Z,12.27
2018-12-08T10:55:26.019Z,9.43
2018-12-08T10:57:52.171Z,8.70
2018-12-08T11:00:24.578Z,19.30
2018-12-08T11:02:52.075Z,9.80
2018-12-08T11:05:18.467Z,8.30
2018-12-08T11:07:44.646Z,5.97
2018-12-08T11:10:10.861Z,4.80
2018-12-08T11:12:37.569Z,4.30
2018-12-08T11:15:04.415Z,5.57
2018-12-08T11:17:30.560Z,4.47
2018-12-08T11:19:56.715Z,5.60
2018-12-08T11:22:22.847Z,5.03
2018-12-08T11:24:49.010Z,3.33
2018-12-08T11:27:15.234Z,4.33
2018-12-08T11:29:41.402Z,4.93
2018-12-08T11:32:07.579Z,6.43
2018-12-08T11:34:33.767Z,3.57
2018-12-08T11:36:59.981Z,4.73
2018-12-08T11:39:26.138Z,6.57
2018-12-08T11:41:52.615Z,4.10
2018-12-08T11:44:19.118Z,4.50
2018-12-08T11:46:45.631Z,4.43
2018-12-08T11:49:11.789Z,4.73
2018-12-08T11:51:38.168Z,4.40
2018-12-08T11:54:04.395Z,5.30
2018-12-08T11:56:30.620Z,3.40
2018-12-08T11:58:56.790Z,4.60
2018-12-08T12:01:23.096Z,3.70
2018-12-08T12:03:49.250Z,6.03
2018-12-08T12:06:15.391Z,4.33
2018-12-08T12:08:41.564Z,4.93
2018-12-08T12:11:07.714Z,3.20
2018-12-08T12:13:34.905Z,4.00
2018-12-08T12:16:01.341Z,5.53
2018-12-08T12:18:27.494Z,4.47
2018-12-08T12:20:53.686Z,4.43
2018-12-08T12:23:19.834Z,3.03
2018-12-08T12:25:46.318Z,2.60
2018-12-08T12:28:12.479Z,4.37
2018-12-08T12:30:38.658Z,3.70
2018-12-08T12:33:04.832Z,3.80
2018-12-08T12:35:31.129Z,6.13
2018-12-08T12:37:57.267Z,4.17
2018-12-08T12:40:23.451Z,2.97
2018-12-08T12:42:49.602Z,2.00
2018-12-08T12:45:15.894Z,3.83
2018-12-08T12:47:42.106Z,3.53
2018-12-08T12:50:08.479Z,3.80
2018-12-08T12:52:34.614Z,4.13
2018-12-08T12:55:00.992Z,3.70
2018-12-08T12:57:27.126Z,3.00
2018-12-08T12:59:53.374Z,2.53
2018-12-08T13:02:19.515Z,2.27
2018-12-08T13:04:45.706Z,2.53
2018-12-08T13:07:11.854Z,3.43
2018-12-08T13:09:38.001Z,3.63
2018-12-08T13:12:04.390Z,3.50
2018-12-08T13:14:30.538Z,3.60
2018-12-08T13:16:56.682Z,2.23
2018-12-08T13:19:22.892Z,3.90
2018-12-08T13:21:49.155Z,2.17
2018-12-08T13:24:15.306Z,2.93
2018-12-08T13:26:41.472Z,4.07
2018-12-08T13:29:07.667Z,4.43
2018-12-08T13:31:33.819Z,2.47
2018-12-08T13:34:04.041Z,2.03
2018-12-08T13:36:30.191Z,2.67
2018-12-08T13:38:56.339Z,2.63
2018-12-08T13:41:22.522Z,3.80
2018-12-08T13:43:51.447Z,2.90
2018-12-08T13:46:17.630Z,4.03
2018-12-08T13:48:44.028Z,2.87
2018-12-08T13:51:10.291Z,2.93
2018-12-08T13:53:36.984Z,4.23
2018-12-08T13:56:03.418Z,4.67
2018-12-08T13:58:29.550Z,2.93
2018-12-08T14:00:55.715Z,3.53
2018-12-08T14:03:21.884Z,3.20
2018-12-08T14:05:48.064Z,2.60
2018-12-08T14:08:14.204Z,4.47
2018-12-08T14:10:40.452Z,2.60
2018-12-08T14:13:06.714Z,3.13
2018-12-08T14:15:32.887Z,3.43
2018-12-08T14:17:59.037Z,2.87
2018-12-08T14:20:25.966Z,4.30
2018-12-08T14:22:52.188Z,2.03
2018-12-08T14:25:18.499Z,2.07
2018-12-08T14:27:44.755Z,2.83
2018-12-08T14:30:11.153Z,2.03
2018-12-08T14:32:37.334Z,3.23
2018-12-08T14:35:03.819Z,2.53
2018-12-08T14:37:29.986Z,2.67
2018-12-08T14:39:56.293Z,4.17
2018-12-08T14:42:22.694Z,6.17
2018-12-08T14:44:48.990Z,3.90
2018-12-08T14:47:15.283Z,5.30
2018-12-08T14:49:41.423Z,7.23
2018-12-08T14:52:07.576Z,5.63
2018-12-08T14:54:33.770Z,9.83
2018-12-08T14:57:00.195Z,17.63
2018-12-08T14:59:26.350Z,3.80
2018-12-08T15:01:52.522Z,4.07
2018-12-08T15:04:18.699Z,14.73
2018-12-08T15:06:44.943Z,8.90
2018-12-08T15:09:11.083Z,3.17
2018-12-08T15:11:37.296Z,1.73
2018-12-08T15:14:03.572Z,2.33
2018-12-08T15:16:29.781Z,3.23
2018-12-08T15:18:55.931Z,2.27
2018-12-08T15:21:22.091Z,2.43
2018-12-08T15:23:48.307Z,2.67
2018-12-08T15:26:14.610Z,2.60
2018-12-08T15:28:47.788Z,1.93
2018-12-08T15:31:15.180Z,2.13
2018-12-08T15:33:41.423Z,2.80
2018-12-08T15:36:07.859Z,3.20
2018-12-08T15:38:34.223Z,3.20
2018-12-08T15:41:00.635Z,4.63
2018-12-08T15:43:26.784Z,2.77
2018-12-08T15:45:52.974Z,3.03
2018-12-08T15:48:19.421Z,2.77
2018-12-08T15:50:45.674Z,4.20
2018-12-08T15:53:11.834Z,5.00
2018-12-08T15:55:38.797Z,1.97
2018-12-08T15:58:05.098Z,2.60
2018-12-08T16:00:31.261Z,5.50
2018-12-08T16:02:57.452Z,4.00
2018-12-08T16:05:23.626Z,5.50
2018-12-08T16:07:49.791Z,4.60
2018-12-08T16:10:16.018Z,2.83
2018-12-08T16:12:42.176Z,2.80
2018-12-08T16:15:08.642Z,2.30
2018-12-08T16:17:34.936Z,4.27
2018-12-08T16:20:01.195Z,2.53
2018-12-08T16:22:27.502Z,2.30
2018-12-08T16:24:53.779Z,5.20
2018-12-08T16:27:19.935Z,2.57
2018-12-08T16:29:46.094Z,3.10
2018-12-08T16:32:12.439Z,2.80
2018-12-08T16:34:38.580Z,4.10
2018-12-08T16:37:04.766Z,3.90
2018-12-08T16:39:30.922Z,3.30
2018-12-08T16:41:57.083Z,2.23
2018-12-08T16:44:23.307Z,2.63
2018-12-08T16:46:49.576Z,3.27
2018-12-08T16:49:15.848Z,3.17
2018-12-08T16:51:42.027Z,2.13
2018-12-08T16:54:08.311Z,2.83
2018-12-08T16:56:34.643Z,3.23
2018-12-08T16:59:00.802Z,4.23
2018-12-08T17:01:27.084Z,4.40
2018-12-08T17:03:53.324Z,4.00
2018-12-08T17:06:19.603Z,5.37
2018-12-08T17:08:45.816Z,4.83
2018-12-08T17:11:12.109Z,2.17
2018-12-08T17:13:38.274Z,3.23
2018-12-08T17:16:04.530Z,1.97
2018-12-08T17:18:30.832Z,2.93
2018-12-08T17:20:56.986Z,2.37
2018-12-08T17:23:23.396Z,2.53
2018-12-08T17:25:49.743Z,2.03
2018-12-08T17:28:15.966Z,3.03
2018-12-08T17:30:42.151Z,3.83
2018-12-08T17:33:08.381Z,3.40
2018-12-08T17:35:34.583Z,3.00
2018-12-08T17:38:00.722Z,2.67
2018-12-08T17:40:26.907Z,2.17
2018-12-08T17:42:53.066Z,2.50
2018-12-08T17:45:19.335Z,3.17
2018-12-08T17:47:45.474Z,2.57
2018-12-08T17:50:11.751Z,2.60
2018-12-08T17:52:37.887Z,3.50
2018-12-08T17:55:04.575Z,2.63
2018-12-08T17:57:30.763Z,4.77
2018-12-08T17:59:56.940Z,5.77
2018-12-08T18:02:23.258Z,3.33
2018-12-08T18:04:49.458Z,4.33
2018-12-08T18:07:15.716Z,4.60
2018-12-08T18:09:41.922Z,4.73
2018-12-08T18:12:08.183Z,17.13
2018-12-08T18:14:34.362Z,29.50
2018-12-08T18:17:00.523Z,4.10
2018-12-08T18:19:26.735Z,3.73
2018-12-08T18:21:52.951Z,6.33
2018-12-08T18:24:19.190Z,6.10
2018-12-08T18:26:45.355Z,3.17
2018-12-08T18:29:11.550Z,4.07
2018-12-08T18:31:37.712Z,6.20
2018-12-08T18:34:03.875Z,2.40
2018-12-08T18:36:30.155Z,4.03
2018-12-08T18:38:56.297Z,5.47
2018-12-08T18:41:22.489Z,4.60
2018-12-08T18:43:48.646Z,5.30
2018-12-08T18:46:14.998Z,3.70
2018-12-08T18:48:41.192Z,3.53
2018-12-08T18:51:07.343Z,5.87
2018-12-08T18:53:33.502Z,2.50
2018-12-08T18:55:59.830Z,5.67
2018-12-08T18:58:26.068Z,5.87
2018-12-08T19:00:52.298Z,4.10
2018-12-08T19:03:18.442Z,6.17
2018-12-08T19:05:44.616Z,2.67
2018-12-08T19:08:10.783Z,3.17
2018-12-08T19:10:37.027Z,6.20
2018-12-08T19:13:03.172Z,5.30
2018-12-08T19:15:29.334Z,4.07
2018-12-08T19:17:55.474Z,2.63
2018-12-08T19:20:21.634Z,4.60
2018-12-08T19:22:47.791Z,3.90
2018-12-08T19:25:13.953Z,3.93
2018-12-08T19:27:40.204Z,3.67
2018-12-08T19:30:07.600Z,4.70
2018-12-08T19:32:33.768Z,2.93
2018-12-08T19:34:59.975Z,2.60
2018-12-08T19:37:26.131Z,4.10
2018-12-08T19:39:52.282Z,3.33
2018-12-08T19:42:18.414Z,2.20
2018-12-08T19:44:44.562Z,2.87
2018-12-08T19:47:10.704Z,3.23
2018-12-08T19:49:36.912Z,3.10
2018-12-08T19:52:03.186Z,2.63
2018-12-08T19:54:29.322Z,4.77
2018-12-08T19:56:55.500Z,5.87
2018-12-08T19:59:21.642Z,6.07
2018-12-08T20:01:47.827Z,2.23
2018-12-08T20:04:13.984Z,4.27
2018-12-08T20:06:40.143Z,8.67
2018-12-08T20:09:06.511Z,4.30
2018-12-08T20:11:32.667Z,2.83
2018-12-08T20:13:59.019Z,10.93
2018-12-08T20:16:25.368Z,4.43
2018-12-08T20:18:51.534Z,6.67
2018-12-08T20:21:17.698Z,5.27
2018-12-08T20:23:43.884Z,3.90
2018-12-08T20:26:10.142Z,5.53
2018-12-08T20:28:36.278Z,2.80
2018-12-08T20:31:02.607Z,2.77
2018-12-08T20:33:28.772Z,2.47
2018-12-08T20:35:54.966Z,2.07
2018-12-08T20:38:21.099Z,2.00
2018-12-08T20:40:47.282Z,3.13
2018-12-08T20:43:13.437Z,2.33
2018-12-08T20:45:39.603Z,2.80
2018-12-08T20:48:05.763Z,3.17
2018-12-08T20:50:32.003Z,4.10
2018-12-08T20:52:58.178Z,3.00
2018-12-08T20:55:26.365Z,2.67
2018-12-08T20:57:52.550Z,4.10
2018-12-08T21:00:18.756Z,2.30
2018-12-08T21:02:44.918Z,2.20
2018-12-08T21:05:11.195Z,1.77
2018-12-08T21:07:37.383Z,3.63
2018-12-08T21:10:04.710Z,2.13
2018-12-08T21:12:30.867Z,1.50
2018-12-08T21:14:57.135Z,2.70
2018-12-08T21:17:23.315Z,4.53
2018-12-08T21:19:49.447Z,2.00
2018-12-08T21:22:15.615Z,2.53
2018-12-08T21:24:41.789Z,3.00
2018-12-08T21:27:08.067Z,4.03
2018-12-08T21:29:34.270Z,1.73
2018-12-08T21:32:00.597Z,2.43
2018-12-08T21:34:26.849Z,3.53
2018-12-08T21:36:53.010Z,3.60
2018-12-08T21:39:20.170Z,1.53
2018-12-08T21:41:46.458Z,1.67
2018-12-08T21:44:12.639Z,1.47
2018-12-08T21:46:38.807Z,1.50
2018-12-08T21:49:04.958Z,2.10
2018-12-08T21:51:31.125Z,1.50
2018-12-08T21:53:57.382Z,2.03
2018-12-08T21:56:23.712Z,1.80
2018-12-08T21:58:49.865Z,1.30
2018-12-08T22:01:16.084Z,1.63
2018-12-08T22:03:42.223Z,1.40
2018-12-08T22:06:08.407Z,3.27
2018-12-08T22:08:34.598Z,1.20
2018-12-08T22:11:00.788Z,1.53
2018-12-08T22:13:27.020Z,2.10
2018-12-08T22:15:53.172Z,1.93
2018-12-08T22:18:19.311Z,1.70
2018-12-08T22:20:45.486Z,1.57
2018-12-08T22:23:11.666Z,1.47
2018-12-08T22:25:37.926Z,2.20
2018-12-08T22:28:04.198Z,1.23
2018-12-08T22:30:30.355Z,1.20
2018-12-08T22:32:56.522Z,1.13
2018-12-08T22:35:22.690Z,1.00
2018-12-08T22:37:48.858Z,1.03
2018-12-08T22:40:15.037Z,1.27
2018-12-08T22:42:41.325Z,1.50
2018-12-08T22:45:07.585Z,0.83
2018-12-08T22:47:33.795Z,0.93
2018-12-08T22:50:00.013Z,2.00
2018-12-08T22:52:26.205Z,1.20
2018-12-08T22:54:52.416Z,2.07
2018-12-08T22:57:18.571Z,1.00
2018-12-08T22:59:44.846Z,1.30
2018-12-08T23:02:11.115Z,1.43
2018-12-08T23:04:37.273Z,1.23
2018-12-08T23:07:03.469Z,1.13
2018-12-08T23:09:29.956Z,1.00
2018-12-08T23:11:56.258Z,2.33
2018-12-08T23:14:22.532Z,1.00
2018-12-08T23:16:48.690Z,0.90
2018-12-08T23:19:14.891Z,1.20
2018-12-08T23:21:41.059Z,1.23
2018-12-08T23:24:07.217Z,1.20
2018-12-08T23:26:33.406Z,1.00
2018-12-08T23:28:59.607Z,0.90
2018-12-08T23:31:25.935Z,1.00
2018-12-08T23:33:52.256Z,1.47
2018-12-08T23:36:18.412Z,1.40
2018-12-08T23:38:44.551Z,1.10
2018-12-08T23:41:10.874Z,1.10
2018-12-08T23:43:37.070Z,1.00
2018-12-08T23:46:03.218Z,0.90
2018-12-08T23:48:29.379Z,3.60
2018-12-08T23:50:55.554Z,1.50
2018-12-08T23:53:21.719Z,0.90
2018-12-08T23:55:47.888Z,1.00
2018-12-08T23:58:14.275Z,0.80
